createdAt,value
2022-09-15T00:03:21.781Z,92.27
2022-09-15T00:08:25.736Z,92.33
2022-09-15T00:13:29.146Z,92.32
2022-09-15T00:18:34.110Z,92.50
2022-09-15T00:23:38.414Z,92.79
2022-09-15T00:28:42.918Z,92.09
2022-09-15T00:33:48.743Z,93.21
2022-09-15T00:38:54.984Z,91.46
2022-09-15T00:44:00.846Z,91.27
2022-09-15T00:49:18.117Z,90.38
2022-09-15T00:54:32.230Z,91.40
2022-09-15T00:59:38.114Z,91.08
2022-09-15T01:04:41.739Z,91.42
2022-09-15T01:10:15.208Z,91.90
2022-09-15T01:15:18.731Z,92.03
2022-09-15T01:20:45.036Z,92.01
2022-09-15T01:25:57.328Z,92.22
2022-09-15T01:31:13.122Z,92.14
2022-09-15T01:36:25.403Z,92.14
2022-09-15T01:41:55.983Z,91.75
2022-09-15T01:47:03.271Z,91.00
2022-09-15T01:52:08.381Z,90.75
2022-09-15T01:57:12.567Z,90.91
2022-09-15T02:02:29.826Z,91.42
2022-09-15T02:08:15.870Z,91.85
2022-09-15T02:13:54.351Z,92.09
2022-09-15T02:19:20.530Z,92.51
2022-09-15T02:24:30.870Z,92.91
2022-09-15T02:29:37.402Z,92.98
2022-09-15T02:34:47.182Z,93.13
2022-09-15T02:39:55.098Z,93.05
2022-09-15T02:45:00.321Z,93.27
2022-09-15T02:50:04.524Z,93.49
2022-09-15T02:55:08.198Z,93.69
2022-09-15T03:00:16.747Z,93.49
2022-09-15T03:05:22.668Z,93.04
2022-09-15T03:10:26.551Z,92.62
2022-09-15T03:15:29.692Z,92.57
2022-09-15T03:20:33.509Z,92.52
2022-09-15T03:25:36.955Z,92.49
2022-09-15T03:30:40.828Z,92.57
2022-09-15T03:35:48.096Z,92.65
2022-09-15T03:41:10.856Z,92.70
2022-09-15T03:46:22.737Z,92.69
2022-09-15T03:51:29.210Z,92.69
2022-09-15T03:56:33.180Z,92.48
2022-09-15T04:01:36.360Z,92.34
2022-09-15T04:06:39.683Z,92.41
2022-09-15T04:11:53.857Z,92.36
2022-09-15T04:16:58.105Z,92.30
2022-09-15T04:22:01.304Z,92.27
2022-09-15T04:27:04.720Z,92.35
2022-09-15T04:32:08.708Z,92.34
2022-09-15T04:37:12.538Z,92.51
2022-09-15T04:42:15.786Z,92.36
2022-09-15T04:47:19.735Z,92.42
2022-09-15T04:52:22.903Z,92.43
2022-09-15T04:57:26.164Z,92.54
2022-09-15T05:02:29.532Z,92.60
2022-09-15T05:07:32.866Z,92.60
2022-09-15T05:12:36.042Z,92.82
2022-09-15T05:17:39.537Z,92.69
2022-09-15T05:22:42.976Z,92.75
2022-09-15T05:27:46.142Z,92.91
2022-09-15T05:32:49.343Z,92.70
2022-09-15T05:37:54.765Z,92.64
2022-09-15T05:42:59.556Z,92.61
2022-09-15T05:48:04.389Z,92.67
2022-09-15T05:53:08.885Z,92.44
2022-09-15T05:58:12.538Z,92.21
2022-09-15T06:03:17.188Z,91.93
2022-09-15T06:08:21.047Z,91.52
2022-09-15T06:13:24.426Z,91.31
2022-09-15T06:18:27.802Z,91.07
2022-09-15T06:23:31.109Z,90.28
2022-09-15T06:28:34.304Z,89.05
2022-09-15T06:33:37.574Z,87.38
2022-09-15T06:38:41.971Z,87.42
2022-09-15T06:43:45.981Z,86.73
2022-09-15T06:48:49.479Z,86.55
2022-09-15T06:53:54.007Z,85.67
2022-09-15T06:58:57.213Z,85.55
2022-09-15T07:04:10.527Z,85.14
2022-09-15T07:09:13.964Z,84.41
2022-09-15T07:14:17.589Z,84.31
2022-09-15T07:19:21.427Z,83.80
2022-09-15T07:24:24.814Z,83.24
2022-09-15T07:29:27.963Z,83.11
2022-09-15T07:34:31.288Z,83.19
2022-09-15T07:39:34.450Z,82.72
2022-09-15T07:44:37.702Z,82.07
2022-09-15T07:49:41.230Z,81.83
2022-09-15T07:54:46.274Z,82.02
2022-09-15T07:59:49.525Z,81.85
2022-09-15T08:04:53.397Z,80.84
2022-09-15T08:09:56.585Z,79.62
2022-09-15T08:14:59.758Z,79.97
2022-09-15T08:20:04.009Z,78.91
2022-09-15T08:25:07.403Z,76.81
2022-09-15T08:30:11.548Z,77.06
2022-09-15T08:35:17.003Z,76.91
2022-09-15T08:40:24.705Z,76.08
2022-09-15T08:45:32.819Z,75.06
2022-09-15T08:50:39.916Z,74.52
2022-09-15T08:55:53.596Z,74.24
2022-09-15T09:01:36.795Z,72.93
2022-09-15T09:06:43.338Z,68.84
2022-09-15T09:12:01.945Z,69.58
2022-09-15T09:17:08.257Z,70.45
2022-09-15T09:22:15.820Z,70.40
2022-09-15T09:27:25.618Z,70.19
2022-09-15T09:32:51.668Z,69.10
2022-09-15T09:38:01.339Z,67.88
2022-09-15T09:43:06.189Z,66.09
2022-09-15T09:48:20.608Z,64.68
2022-09-15T09:53:32.351Z,66.42
2022-09-15T09:58:37.583Z,67.04
2022-09-15T10:03:42.126Z,67.34
2022-09-15T10:08:58.721Z,66.65
2022-09-15T10:14:02.280Z,62.81
2022-09-15T10:19:12.733Z,63.75
2022-09-15T10:24:34.925Z,64.11
2022-09-15T10:29:40.466Z,63.63
2022-09-15T10:34:49.125Z,63.03
2022-09-15T10:39:54.812Z,64.05
2022-09-15T10:45:11.323Z,65.26
2022-09-15T10:50:21.585Z,65.62
2022-09-15T10:55:54.859Z,65.59
2022-09-15T11:01:16.885Z,66.37
2022-09-15T11:06:33.264Z,66.50
2022-09-15T11:11:48.423Z,66.20
2022-09-15T11:17:28.402Z,66.38
2022-09-15T11:22:37.681Z,64.85
2022-09-15T11:27:45.357Z,65.07
2022-09-15T11:32:58.949Z,64.27
2022-09-15T11:38:36.296Z,63.89
2022-09-15T11:44:02.300Z,62.70
2022-09-15T11:49:16.295Z,63.12
2022-09-15T11:54:34.429Z,62.83
2022-09-15T11:59:58.803Z,63.04
2022-09-15T12:05:16.239Z,62.27
2022-09-15T12:10:24.887Z,61.24
2022-09-15T12:15:28.387Z,61.28
2022-09-15T12:20:37.894Z,61.52
2022-09-15T12:26:19.407Z,61.05
2022-09-15T12:31:37.597Z,60.73
2022-09-15T12:37:09.088Z,61.47
2022-09-15T12:42:25.519Z,62.73
2022-09-15T12:47:35.545Z,62.49
2022-09-15T12:52:51.814Z,61.56
2022-09-15T12:58:02.911Z,61.21
2022-09-15T13:03:28.666Z,62.37
2022-09-15T13:08:31.924Z,62.82
2022-09-15T13:13:56.262Z,63.24
2022-09-15T13:19:30.054Z,64.04
2022-09-15T13:25:01.389Z,63.63
2022-09-15T13:30:43.453Z,63.61
2022-09-15T13:35:52.819Z,63.83
2022-09-15T13:41:24.020Z,63.02
2022-09-15T13:46:49.367Z,61.60
2022-09-15T13:52:22.711Z,62.35
2022-09-15T14:02:52.914Z,61.04
2022-09-15T14:08:04.441Z,61.96
2022-09-15T14:13:07.816Z,62.96
2022-09-15T14:18:20.296Z,64.04
2022-09-15T14:23:26.677Z,65.08
2022-09-15T14:28:32.818Z,65.75
2022-09-15T14:33:42.522Z,66.98
2022-09-15T14:39:17.192Z,67.62
2022-09-15T14:50:20.498Z,67.02
2022-09-15T14:55:35.709Z,66.60
2022-09-15T15:00:53.985Z,66.43
2022-09-15T15:06:29.563Z,65.35
2022-09-15T15:11:42.315Z,64.56
2022-09-15T15:17:27.760Z,64.39
2022-09-15T15:22:38.797Z,64.22
2022-09-15T15:27:57.354Z,64.92
2022-09-15T15:33:15.110Z,64.82
2022-09-15T15:38:28.027Z,65.06
2022-09-15T15:43:39.036Z,64.57
2022-09-15T15:48:42.506Z,64.46
2022-09-15T15:53:46.021Z,64.69
2022-09-15T15:58:49.143Z,65.01
2022-09-15T16:04:03.365Z,65.64
2022-09-15T16:09:07.253Z,66.76
2022-09-15T16:14:14.889Z,66.99
2022-09-15T16:19:25.035Z,68.07
2022-09-15T16:24:29.430Z,68.72
2022-09-15T16:29:36.447Z,68.39
2022-09-15T16:34:40.114Z,69.08
2022-09-15T16:39:48.820Z,69.94
2022-09-15T16:45:02.879Z,70.80
2022-09-15T16:50:07.582Z,70.86
2022-09-15T16:55:19.404Z,71.90
2022-09-15T17:00:25.440Z,71.45
2022-09-15T17:05:39.959Z,71.12
2022-09-15T17:10:55.359Z,71.07
2022-09-15T17:16:03.046Z,70.81
2022-09-15T17:21:13.593Z,71.23
2022-09-15T17:26:27.628Z,71.69
2022-09-15T17:31:39.174Z,73.19
2022-09-15T17:36:42.680Z,73.63
2022-09-15T17:41:49.683Z,74.27
2022-09-15T17:46:53.627Z,75.07
2022-09-15T17:51:57.025Z,74.30
2022-09-15T17:57:00.460Z,73.89
2022-09-15T18:02:04.486Z,74.30
2022-09-15T18:07:20.660Z,74.76
2022-09-15T18:12:28.865Z,75.00
2022-09-15T18:17:32.789Z,75.38
2022-09-15T18:22:45.818Z,75.73
2022-09-15T18:28:02.264Z,75.85
2022-09-15T18:33:06.019Z,76.39
2022-09-15T18:38:15.519Z,76.87
2022-09-15T18:43:28.916Z,77.04
2022-09-15T18:48:38.146Z,76.78
2022-09-15T18:53:54.242Z,76.63
2022-09-15T18:59:09.922Z,77.10
2022-09-15T19:04:19.995Z,77.31
2022-09-15T19:09:30.572Z,77.56
2022-09-15T19:14:49.631Z,77.57
2022-09-15T19:20:35.935Z,77.51
2022-09-15T19:25:50.882Z,78.52
2022-09-15T19:31:00.039Z,79.25
2022-09-15T19:36:27.550Z,79.56
2022-09-15T19:41:39.089Z,79.60
2022-09-15T19:46:46.346Z,79.67
2022-09-15T19:51:55.618Z,79.37
2022-09-15T19:57:13.860Z,80.00
2022-09-15T20:02:23.583Z,80.47
2022-09-15T20:07:28.130Z,80.32
2022-09-15T20:12:35.326Z,81.03
2022-09-15T20:17:49.274Z,81.68
2022-09-15T20:22:54.583Z,82.10
2022-09-15T20:28:09.147Z,82.36
2022-09-15T20:33:28.528Z,83.18
2022-09-15T20:38:40.998Z,82.60
2022-09-15T20:43:55.319Z,83.48
2022-09-15T20:49:21.959Z,83.43
2022-09-15T20:54:26.086Z,83.67
2022-09-15T20:59:36.309Z,82.47
2022-09-15T21:04:58.719Z,82.73
2022-09-15T21:10:05.808Z,82.50
2022-09-15T21:15:09.720Z,82.39
2022-09-15T21:20:13.956Z,83.00
2022-09-15T21:25:20.366Z,82.77
2022-09-15T21:30:24.040Z,82.77
2022-09-15T21:35:27.447Z,82.74
2022-09-15T21:40:33.141Z,83.45
2022-09-15T21:45:42.679Z,83.02
2022-09-15T21:50:51.160Z,83.99
2022-09-15T21:55:55.127Z,83.03
2022-09-15T22:00:58.478Z,83.65
2022-09-15T22:06:02.157Z,83.74
2022-09-15T22:11:07.477Z,83.49
2022-09-15T22:16:19.217Z,83.49
2022-09-15T22:21:26.814Z,83.80
2022-09-15T22:26:32.515Z,84.66
2022-09-15T22:31:37.614Z,84.37
2022-09-15T22:36:42.053Z,84.26
2022-09-15T22:41:45.807Z,83.96
2022-09-15T22:46:58.204Z,84.25
2022-09-15T22:52:03.284Z,83.96
2022-09-15T22:57:07.480Z,84.18
2022-09-15T23:02:11.237Z,85.01
2022-09-15T23:07:15.121Z,84.42
2022-09-15T23:12:25.195Z,84.34
2022-09-15T23:17:29.895Z,84.17
2022-09-15T23:22:33.146Z,84.38
2022-09-15T23:27:37.246Z,84.21
2022-09-15T23:32:43.066Z,84.04
2022-09-15T23:37:48.083Z,83.75
2022-09-15T23:42:53.440Z,83.49
2022-09-15T23:47:56.743Z,82.99
2022-09-15T23:53:00.172Z,83.02
2022-09-15T23:58:05.142Z,83.01
